Twenty Mile Stand, Ohio
Current Conditions -  °F | °C
As of 7:53 PM on Tuesday 21 Oct 2014 (Local Time) from KLUK Reporting Station
Overcast Overcast  
Wind Chill: 50°   Ceiling: 4200
Heat Index: 50°   Visibility: 10mi
Dew Point: 44°   Wind: 8mph
Humidity: 80%   Direction: 10°N
Pressure: 30.14"   Gusts: NA
Location:  39.23°N, 84.2394°W
Report Text: KLUK 212353Z 01007KT 10SM FEW026 BKN042 OVC060 10/07 A3014 RMK AO2 SLP207 T01000067 10133 20100 53019
Loading
Personal Weather Stations






























Interactive Weather Map
Tropical Storm Tracking
New forecast layout! Learn more

10-Day Weather Forecast

Advertisements
Track Severe Weather on mobile